Time;durP1;ratioP1;P1;durP2;ratioP2;P2;SDS_P1;SDS_P2;PMS_P1;PMS_P2;Temp;Humidity;BMP_temperature;BMP_pressure;BME280_temperature;BME280_humidity;BME280_pressure;Samples;Min_cycle;Max_cycle;Signal;HPM_P1;HPM_P2
2023/07/10 00:01:15;;;;;;;7.85;4.10;;;;;;;25.35;54.68;101969.66;5046452;28;20512;-83
2023/07/10 00:03:40;;;;;;;6.82;4.25;;;;;;;25.34;54.65;101961.84;5046111;28;20075;-83
2023/07/10 00:06:12;;;;;;;5.75;4.32;;;;;;;25.29;54.50;101949.88;5012537;28;20127;-84
2023/07/10 00:08:38;;;;;;;6.32;3.80;;;;;;;25.34;54.44;101957.34;5033661;28;20030;-83
2023/07/10 00:11:10;;;;;;;7.38;4.28;;;;;;;25.36;54.70;101960.63;5025706;28;20049;-81
2023/07/10 00:13:36;;;;;;;6.65;4.18;;;;;;;25.37;54.62;101967.63;5035974;28;20075;-81
2023/07/10 00:16:01;;;;;;;9.18;4.35;;;;;;;25.36;54.46;101968.63;5034144;28;20053;-82
2023/07/10 00:18:27;;;;;;;7.35;4.20;;;;;;;25.36;54.70;101970.47;5036542;28;20045;-82
2023/07/10 00:20:52;;;;;;;7.03;4.13;;;;;;;25.32;54.72;101967.38;5033307;28;20048;-82
2023/07/10 00:23:18;;;;;;;8.20;4.60;;;;;;;25.35;54.37;101969.66;5034625;28;20041;-83
2023/07/10 00:25:44;;;;;;;7.25;4.65;;;;;;;25.24;54.46;101954.97;5033211;28;20033;-81
2023/07/10 00:28:19;;;;;;;5.55;3.78;;;;;;;25.34;54.77;101975.16;5037841;28;20037;-82
2023/07/10 00:30:46;;;;;;;5.97;3.63;;;;;;;25.30;54.32;101972.03;5032721;28;20041;-83
2023/07/10 00:33:14;;;;;;;6.22;3.88;;;;;;;25.31;54.38;101976.34;5032338;28;20055;-85
2023/07/10 00:35:40;;;;;;;7.00;4.38;;;;;;;25.14;54.37;101949.13;5032518;28;20044;-82
2023/07/10 00:38:31;;;;;;;5.60;4.43;;;;;;;25.34;54.43;101977.84;5052113;28;20025;-84
2023/07/10 00:41:00;;;;;;;6.90;3.67;;;;;;;25.25;54.37;101971.78;5029508;28;20065;-83
2023/07/10 00:43:29;;;;;;;7.15;4.10;;;;;;;25.31;54.38;101984.34;5035042;28;20059;-81
2023/07/10 00:46:01;;;;;;;6.72;4.30;;;;;;;25.28;54.61;101971.41;5046428;28;20585;-83
2023/07/10 00:48:44;;;;;;;6.95;4.18;;;;;;;25.32;54.48;101985.19;5045498;28;20105;-83
2023/07/10 00:51:17;;;;;;;7.22;4.53;;;;;;;25.28;54.25;101968.72;5031734;28;20041;-84
2023/07/10 00:53:45;;;;;;;9.93;4.63;;;;;;;25.30;54.56;101962.19;5029096;28;20507;-81
2023/07/10 00:56:17;;;;;;;5.22;3.80;;;;;;;25.24;54.40;101960.28;5027121;28;20057;-82
2023/07/10 00:58:46;;;;;;;4.88;4.20;;;;;;;25.31;54.23;101965.69;5030297;28;20064;-81
2023/07/10 01:01:22;;;;;;;6.53;4.40;;;;;;;25.30;54.42;101972.84;5031495;28;20030;-82
2023/07/10 01:03:52;;;;;;;6.35;4.30;;;;;;;25.28;54.17;101961.56;5029915;28;20037;-83
2023/07/10 01:06:29;;;;;;;7.25;4.40;;;;;;;25.30;54.63;101950.69;5005378;28;20060;-82
2023/07/10 01:09:04;;;;;;;8.05;4.70;;;;;;;25.30;54.57;101956.03;5031048;28;20033;-80
2023/07/10 01:11:34;;;;;;;6.82;3.92;;;;;;;25.28;54.48;101958.88;5030396;28;20037;-81
2023/07/10 01:14:02;;;;;;;6.95;4.13;;;;;;;25.20;54.58;101947.53;5031599;28;20029;-81
2023/07/10 01:16:30;;;;;;;8.43;4.68;;;;;;;25.28;54.59;101960.72;5032736;28;20029;-80
2023/07/10 01:18:56;;;;;;;5.32;3.95;;;;;;;25.23;54.16;101944.50;5030158;28;20041;-82
2023/07/10 01:21:30;;;;;;;6.38;4.70;;;;;;;25.28;54.26;101947.41;5030617;28;20025;-83
2023/07/10 01:23:59;;;;;;;6.53;4.40;;;;;;;25.26;54.51;101949.44;5028102;28;20041;-83
2023/07/10 01:26:25;;;;;;;6.78;4.18;;;;;;;25.28;54.43;101950.91;5028016;28;20507;-82
2023/07/10 01:28:52;;;;;;;9.18;4.90;;;;;;;25.28;54.12;101958.06;5029941;28;20144;-84
2023/07/10 01:31:19;;;;;;;8.65;4.50;;;;;;;25.29;54.34;101949.88;5047516;28;20045;-83
2023/07/10 01:33:56;;;;;;;6.80;4.82;;;;;;;25.27;54.52;101959.09;5026352;28;20484;-85
2023/07/10 01:36:27;;;;;;;5.30;4.20;;;;;;;25.27;54.37;101967.09;5029429;28;20542;-83
2023/07/10 01:39:05;;;;;;;7.05;4.60;;;;;;;25.13;54.29;101949.28;5042758;28;20030;-87
2023/07/10 01:41:39;;;;;;;8.90;5.13;;;;;;;25.27;54.62;101967.09;5032806;28;20121;-84
2023/07/10 01:44:25;;;;;;;7.32;4.68;;;;;;;25.26;54.27;101976.09;5046687;28;20045;-83
2023/07/10 01:46:51;;;;;;;10.48;5.90;;;;;;;25.15;54.51;101950.78;5029663;28;20037;-86
2023/07/10 01:49:24;;;;;;;9.23;5.03;;;;;;;25.03;54.45;101932.78;5011523;28;20033;-83
2023/07/10 01:51:51;;;;;;;9.10;5.60;;;;;;;25.02;54.17;101933.81;5010515;28;20593;-83
2023/07/10 01:54:17;;;;;;;7.15;4.60;;;;;;;25.23;54.51;101958.63;5011320;28;20077;-85
2023/07/10 01:56:44;;;;;;;6.82;4.65;;;;;;;24.95;54.46;101915.03;5012212;28;20046;-82
2023/07/10 01:59:10;;;;;;;8.80;5.43;;;;;;;25.14;54.46;101937.63;5027493;28;20041;-85
2023/07/10 02:01:36;;;;;;;8.65;5.70;;;;;;;25.23;54.47;101961.31;5011890;28;20101;-85
2023/07/10 02:04:02;;;;;;;7.35;5.22;;;;;;;25.24;54.33;101962.13;5031054;28;20116;-82
2023/07/10 02:06:28;;;;;;;8.35;5.38;;;;;;;25.22;54.38;101964.16;5026848;28;20034;-81
2023/07/10 02:08:53;;;;;;;7.85;5.13;;;;;;;25.14;54.11;101949.13;5027672;28;20034;-84
2023/07/10 02:11:19;;;;;;;8.13;5.25;;;;;;;25.17;54.20;101961.25;5015079;28;20104;-83
2023/07/10 02:13:45;;;;;;;7.50;5.45;;;;;;;25.13;54.31;101957.28;5004334;28;20123;-86
2023/07/10 02:16:13;;;;;;;8.27;5.32;;;;;;;25.21;54.30;101965.19;5014067;28;20544;-84
2023/07/10 02:18:39;;;;;;;7.85;5.18;;;;;;;25.10;54.14;101953.16;5032164;28;20472;-86
2023/07/10 02:21:06;;;;;;;8.10;5.15;;;;;;;25.17;54.42;101955.91;5029292;28;20032;-87
2023/07/10 02:23:34;;;;;;;9.52;5.50;;;;;;;25.08;54.36;101938.38;5045896;28;20036;-84
2023/07/10 02:26:00;;;;;;;7.68;5.13;;;;;;;25.19;54.44;101970.69;5045997;28;20552;-84
2023/07/10 02:28:26;;;;;;;8.73;5.53;;;;;;;25.20;54.06;101971.53;5047918;28;20811;-83
2023/07/10 02:30:52;;;;;;;7.97;5.28;;;;;;;25.17;54.41;101962.06;5046267;28;20118;-84
2023/07/10 02:33:19;;;;;;;8.40;5.28;;;;;;;25.18;54.21;101963.72;5008254;28;20728;-83
2023/07/10 02:35:49;;;;;;;9.63;4.93;;;;;;;25.05;53.92;101944.91;4999825;28;20037;-84
2023/07/10 02:38:15;;;;;;;7.40;5.22;;;;;;;25.13;54.08;101966.09;5030030;28;20053;-85
2023/07/10 02:40:43;;;;;;;7.97;5.82;;;;;;;25.16;53.86;101978.25;5026133;28;20087;-83
2023/07/10 02:43:09;;;;;;;6.03;4.85;;;;;;;25.18;54.14;101976.22;5042756;28;20190;-84
2023/07/10 02:45:35;;;;;;;9.10;5.07;;;;;;;25.11;54.05;101965.47;5028666;28;20051;-80
2023/07/10 02:48:01;;;;;;;7.38;5.00;;;;;;;25.09;54.29;101956.84;5029964;28;20107;-81
2023/07/10 02:50:26;;;;;;;9.82;5.35;;;;;;;25.15;53.95;101973.94;5012852;28;21074;-80
2023/07/10 02:52:52;;;;;;;8.50;5.20;;;;;;;25.14;54.09;101983.78;5011926;28;20069;-82
2023/07/10 02:55:18;;;;;;;6.85;5.03;;;;;;;25.14;54.11;101974.94;5030169;28;20365;-80
2023/07/10 02:57:43;;;;;;;7.20;5.15;;;;;;;25.13;54.32;101986.59;5027340;28;20045;-83
2023/07/10 03:00:09;;;;;;;8.55;5.93;;;;;;;25.15;54.24;101996.09;5028120;28;20033;-80
2023/07/10 03:02:35;;;;;;;6.20;5.22;;;;;;;25.12;54.19;101991.09;5027366;28;20060;-82
2023/07/10 03:05:01;;;;;;;6.00;4.82;;;;;;;25.14;54.16;101991.78;5008572;28;20045;-81
2023/07/10 03:07:27;;;;;;;7.90;5.57;;;;;;;24.99;54.00;101965.16;5026712;28;21333;-79
2023/07/10 03:09:52;;;;;;;8.55;4.97;;;;;;;24.96;53.70;101949.50;5027476;28;20045;-80
2023/07/10 03:12:18;;;;;;;7.85;5.18;;;;;;;25.14;54.06;101977.63;5023038;28;20125;-79
2023/07/10 03:14:44;;;;;;;7.82;5.22;;;;;;;25.12;54.03;101983.09;5047541;28;20037;-80
2023/07/10 03:17:09;;;;;;;7.70;4.72;;;;;;;25.12;54.03;101985.78;5031696;28;20042;-80
2023/07/10 03:19:35;;;;;;;8.55;5.13;;;;;;;25.10;53.89;101992.31;5014191;28;20041;-81
2023/07/10 03:22:00;;;;;;;7.63;5.38;;;;;;;25.05;53.78;101987.53;5035259;28;20029;-81
2023/07/10 03:24:27;;;;;;;5.50;4.63;;;;;;;25.10;53.81;101990.47;5032845;28;20030;-79
2023/07/10 03:26:52;;;;;;;7.43;4.90;;;;;;;25.00;54.05;101984.63;5038269;28;20039;-80
2023/07/10 03:29:18;;;;;;;6.65;5.15;;;;;;;24.90;53.70;101968.88;5035044;28;20033;-79
2023/07/10 03:31:44;;;;;;;7.28;4.75;;;;;;;25.03;54.05;101989.56;5036765;28;20045;-80
2023/07/10 03:34:12;;;;;;;7.70;5.43;;;;;;;24.98;54.01;101983.94;5019697;28;20824;-80
2023/07/10 03:36:37;;;;;;;6.10;4.85;;;;;;;25.10;53.97;102000.31;5045298;28;20538;-81
2023/07/10 03:39:03;;;;;;;6.35;4.80;;;;;;;25.00;53.88;101988.13;5044688;28;20094;-82
2023/07/10 03:41:29;;;;;;;5.18;4.47;;;;;;;25.02;54.08;101985.25;5036617;28;20391;-79
2023/07/10 03:43:55;;;;;;;5.32;4.60;;;;;;;25.04;53.93;101983.22;5036812;28;20049;-80
2023/07/10 03:46:22;;;;;;;6.07;4.68;;;;;;;25.04;53.81;101996.56;5037239;28;20052;-79
2023/07/10 03:48:48;;;;;;;5.47;4.63;;;;;;;25.04;53.82;101993.06;5041876;28;20507;-80
2023/07/10 03:51:15;;;;;;;6.88;5.10;;;;;;;25.04;54.09;102003.72;5017148;28;20044;-79
2023/07/10 03:53:41;;;;;;;6.03;4.60;;;;;;;24.97;53.92;101985.78;5036605;28;20739;-80
2023/07/10 03:56:07;;;;;;;6.88;5.03;;;;;;;25.09;53.76;101999.47;5035579;28;20048;-80
2023/07/10 03:58:34;;;;;;;7.20;4.80;;;;;;;25.06;54.01;101996.38;5030682;28;20041;-82
2023/07/10 04:01:01;;;;;;;6.03;4.80;;;;;;;25.01;53.97;101991.59;5035874;28;20429;-80
2023/07/10 04:03:29;;;;;;;8.65;4.72;;;;;;;25.03;53.87;101997.56;5051363;28;20112;-81
2023/07/10 04:05:58;;;;;;;6.15;4.80;;;;;;;24.94;53.87;101985.31;5033049;28;20656;-79
2023/07/10 04:08:27;;;;;;;8.35;5.10;;;;;;;25.06;53.98;102015.84;5035690;28;20045;-81
2023/07/10 04:10:55;;;;;;;5.55;4.90;;;;;;;24.92;53.96;101990.00;5036376;28;20376;-82
2023/07/10 04:13:21;;;;;;;6.20;4.55;;;;;;;25.02;53.81;102011.91;5037479;28;20061;-80
2023/07/10 04:16:00;;;;;;;6.88;5.65;;;;;;;25.08;53.93;102016.47;5013807;28;20022;-81
2023/07/10 04:18:28;;;;;;;8.32;4.97;;;;;;;25.04;53.87;102007.22;5018779;28;20128;-81
2023/07/10 04:20:54;;;;;;;5.50;4.32;;;;;;;25.04;53.66;102003.72;5018817;28;20420;-79
2023/07/10 04:23:20;;;;;;;5.28;4.78;;;;;;;25.04;53.73;101995.72;5013329;28;20124;-83
2023/07/10 04:25:46;;;;;;;6.43;4.78;;;;;;;24.97;53.80;101992.97;5033381;28;20037;-82
2023/07/10 04:28:12;;;;;;;5.80;4.40;;;;;;;25.04;53.79;102012.53;5030595;28;20037;-83
2023/07/10 04:30:37;;;;;;;6.20;4.38;;;;;;;25.11;53.59;102023.28;5034039;28;20096;-81
2023/07/10 04:33:03;;;;;;;7.20;4.38;;;;;;;25.05;53.62;102010.69;5026911;28;20041;-80
2023/07/10 04:35:28;;;;;;;5.78;4.50;;;;;;;25.06;53.65;102010.50;5038962;28;20037;-81
2023/07/10 04:37:54;;;;;;;5.47;4.47;;;;;;;25.03;53.36;102000.22;5016231;28;20044;-83
2023/07/10 04:40:19;;;;;;;7.88;4.60;;;;;;;25.03;53.53;102002.06;5036543;28;20032;-81
2023/07/10 04:42:45;;;;;;;4.90;4.22;;;;;;;25.10;53.53;102014.44;5030677;28;20044;-81
2023/07/10 04:45:10;;;;;;;6.05;4.43;;;;;;;25.11;53.37;102023.28;5046422;28;20037;-81
2023/07/10 04:47:36;;;;;;;6.40;4.60;;;;;;;24.98;53.40;102011.44;5029877;28;20518;-82
2023/07/10 04:50:02;;;;;;;5.80;4.30;;;;;;;25.04;53.49;102019.72;5015137;28;20076;-82
2023/07/10 04:52:28;;;;;;;6.35;4.63;;;;;;;25.00;53.37;102008.59;4999380;28;20144;-81
2023/07/10 04:54:53;;;;;;;6.18;4.18;;;;;;;25.03;53.65;102010.91;5030123;28;20630;-82
2023/07/10 04:57:19;;;;;;;4.90;4.15;;;;;;;25.02;53.36;102011.09;5032109;28;20045;-82
2023/07/10 04:59:46;;;;;;;6.47;4.72;;;;;;;25.12;53.46;102024.94;5026548;28;20053;-81
2023/07/10 05:02:12;;;;;;;5.03;3.85;;;;;;;25.12;53.27;102027.59;5012005;28;20042;-82
2023/07/10 05:04:37;;;;;;;7.53;4.60;;;;;;;25.02;53.29;102016.41;5026596;28;20060;-80
2023/07/10 05:07:03;;;;;;;4.90;4.03;;;;;;;25.10;53.22;102032.28;5026341;28;20049;-82
2023/07/10 05:09:29;;;;;;;5.72;4.57;;;;;;;25.01;53.57;102015.59;5030398;28;20037;-82
2023/07/10 05:11:55;;;;;;;4.72;3.70;;;;;;;25.00;53.54;102016.59;5008953;28;20038;-81
2023/07/10 05:14:20;;;;;;;4.97;4.20;;;;;;;25.03;53.61;102032.22;5030129;28;20045;-85
2023/07/10 05:16:46;;;;;;;5.38;4.07;;;;;;;25.11;53.37;102040.09;5014185;28;20048;-82
2023/07/10 05:19:12;;;;;;;6.50;4.28;;;;;;;25.13;53.27;102034.56;5029062;28;20040;-83
2023/07/10 05:21:37;;;;;;;4.45;3.80;;;;;;;25.04;53.09;102025.03;5029869;28;20060;-81
2023/07/10 05:24:03;;;;;;;5.80;3.80;;;;;;;25.12;53.43;102043.59;5027231;28;20037;-84
2023/07/10 05:26:29;;;;;;;5.80;4.32;;;;;;;25.12;53.21;102041.75;5043864;28;20056;-83
2023/07/10 05:28:54;;;;;;;5.03;3.83;;;;;;;25.09;53.25;102041.28;5033642;28;20048;-84
2023/07/10 05:31:20;;;;;;;5.57;4.10;;;;;;;24.93;53.23;102016.47;5014001;28;20045;-84
2023/07/10 05:33:47;;;;;;;6.22;3.60;;;;;;;25.11;53.00;102040.09;5030462;28;20041;-84
2023/07/10 05:36:13;;;;;;;4.32;3.60;;;;;;;24.96;53.08;102009.97;5027285;28;20045;-83
2023/07/10 05:38:40;;;;;;;5.85;3.47;;;;;;;25.12;53.35;102047.06;5029927;28;21716;-81
2023/07/10 05:41:06;;;;;;;5.15;3.28;;;;;;;25.11;53.10;102040.09;5027856;28;20029;-83
2023/07/10 05:43:33;;;;;;;4.65;3.30;;;;;;;25.13;53.22;102045.25;5029147;28;20044;-82
2023/07/10 05:45:59;;;;;;;5.07;3.60;;;;;;;25.12;53.20;102054.25;5040720;28;20045;-82
2023/07/10 05:48:25;;;;;;;5.50;3.70;;;;;;;25.13;52.90;102054.06;5030471;28;20045;-81
2023/07/10 05:50:51;;;;;;;3.28;2.97;;;;;;;25.14;52.91;102052.25;5037113;28;20150;-83
2023/07/10 05:53:18;;;;;;;4.13;3.38;;;;;;;24.99;52.94;102023.78;5029914;28;20053;-81
2023/07/10 05:55:51;;;;;;;5.47;3.67;;;;;;;25.12;52.89;102048.91;5033953;28;20112;-82
2023/07/10 05:58:19;;;;;;;3.88;3.15;;;;;;;25.12;52.67;102057.72;5011293;28;20044;-83
2023/07/10 06:00:47;;;;;;;4.13;3.10;;;;;;;25.05;52.74;102032.84;5025919;28;20108;-82
2023/07/10 06:03:13;;;;;;;3.65;2.78;;;;;;;25.13;52.88;102042.56;5038859;28;20049;-83
2023/07/10 06:05:39;;;;;;;4.70;3.03;;;;;;;25.13;52.95;102046.06;5048124;28;20046;-81
2023/07/10 06:08:11;;;;;;;4.95;3.08;;;;;;;25.12;52.77;102033.75;5015460;28;20057;-82
2023/07/10 06:10:36;;;;;;;4.00;2.92;;;;;;;25.08;52.40;102031.66;5031434;28;20037;-81
2023/07/10 06:13:02;;;;;;;4.38;3.63;;;;;;;25.17;52.37;102047.38;5035200;28;20844;-83
2023/07/10 06:15:28;;;;;;;4.47;3.00;;;;;;;25.11;52.48;102036.59;5036090;28;20044;-82
2023/07/10 06:17:53;;;;;;;4.10;2.75;;;;;;;25.16;52.73;102040.38;5033616;28;20159;-83
2023/07/10 06:20:19;;;;;;;4.28;2.90;;;;;;;25.07;52.67;102035.31;5014876;28;20049;-82
2023/07/10 06:22:44;;;;;;;4.75;3.17;;;;;;;25.10;52.74;102040.28;5030361;28;20033;-81
2023/07/10 06:25:10;;;;;;;3.38;2.65;;;;;;;25.14;52.46;102049.59;5009649;28;20046;-84
2023/07/10 06:27:35;;;;;;;4.20;2.85;;;;;;;25.17;52.61;102058.03;5029209;28;20162;-82
2023/07/10 06:30:02;;;;;;;3.50;2.88;;;;;;;25.19;52.50;102053.34;5012725;28;20068;-83
2023/07/10 06:32:27;;;;;;;4.47;3.13;;;;;;;25.07;52.63;102035.31;5031522;28;20053;-83
2023/07/10 06:34:53;;;;;;;3.33;2.45;;;;;;;25.16;52.58;102056.38;5028023;28;20061;-82
2023/07/10 06:37:19;;;;;;;3.45;2.55;;;;;;;25.19;52.23;102049.84;5028685;28;20037;-81
2023/07/10 06:39:44;;;;;;;3.28;2.50;;;;;;;25.18;52.33;102051.69;5029907;28;20496;-81
2023/07/10 06:42:10;;;;;;;3.45;2.75;;;;;;;25.24;52.04;102063.44;5024157;28;20045;-81
2023/07/10 06:44:35;;;;;;;2.55;2.30;;;;;;;25.20;52.38;102060.31;5027642;28;20041;-81
2023/07/10 06:47:01;;;;;;;3.33;2.67;;;;;;;25.24;52.39;102063.44;5030819;28;20037;-80
2023/07/10 06:49:26;;;;;;;4.80;2.60;;;;;;;25.20;52.05;102062.97;5027269;28;20033;-82
2023/07/10 06:51:52;;;;;;;3.88;2.45;;;;;;;25.25;52.38;102073.09;5028572;28;20881;-81
2023/07/10 06:54:17;;;;;;;4.57;2.47;;;;;;;25.24;52.06;102076.75;5029885;28;20045;-82
2023/07/10 06:56:43;;;;;;;3.78;2.40;;;;;;;25.22;51.92;102065.47;5028779;28;20045;-81
2023/07/10 06:59:08;;;;;;;3.65;2.65;;;;;;;25.24;51.83;102064.25;5029604;28;20057;-81
2023/07/10 07:01:34;;;;;;;2.95;2.40;;;;;;;25.25;51.87;102065.91;5027682;28;20032;-86
2023/07/10 07:03:59;;;;;;;3.55;2.33;;;;;;;25.26;51.72;102059.56;5011023;28;20057;-84
2023/07/10 07:06:25;;;;;;;4.15;2.40;;;;;;;25.24;51.61;102050.09;5022667;28;20103;-85
2023/07/10 07:08:52;;;;;;;5.00;2.83;;;;;;;25.35;51.68;102059.47;5030818;28;20393;-87
2023/07/10 07:11:18;;;;;;;5.47;3.38;;;;;;;25.40;52.04;102063.22;5026882;28;20037;-86
2023/07/10 07:13:44;;;;;;;4.07;2.58;;;;;;;25.39;51.66;102064.25;5025005;28;20067;-82
2023/07/10 07:16:10;;;;;;;3.65;2.53;;;;;;;25.45;51.59;102066.16;5029505;28;20045;-82
2023/07/10 07:18:35;;;;;;;4.07;2.70;;;;;;;25.50;51.70;102057.59;5045024;28;20058;-84
2023/07/10 07:21:01;;;;;;;4.88;2.70;;;;;;;25.50;51.21;102058.44;5031055;28;20046;-85
2023/07/10 07:23:27;;;;;;;4.45;2.47;;;;;;;25.48;51.09;102057.78;5031261;28;20029;-83
2023/07/10 07:25:54;;;;;;;5.15;2.70;;;;;;;25.57;50.99;102064.66;5014490;28;20060;-83
2023/07/10 07:28:21;;;;;;;4.40;2.45;;;;;;;25.59;50.66;102059.97;5045831;28;20128;-84
2023/07/10 07:30:49;;;;;;;3.45;2.10;;;;;;;25.53;50.45;102049.22;5045032;28;20057;-84
2023/07/10 07:33:19;;;;;;;6.10;2.65;;;;;;;25.52;50.98;102040.41;5024192;28;20037;-83
2023/07/10 07:35:46;;;;;;;4.78;2.58;;;;;;;25.65;50.23;102057.53;5029410;28;20057;-84
2023/07/10 07:38:14;;;;;;;4.82;2.22;;;;;;;25.66;50.23;102052.00;5032487;28;20026;-83
2023/07/10 07:40:39;;;;;;;4.30;2.28;;;;;;;25.57;50.02;102029.97;5032141;28;20501;-83
2023/07/10 07:43:05;;;;;;;6.78;2.80;;;;;;;25.68;49.71;102054.56;5035209;28;20037;-84
2023/07/10 07:45:30;;;;;;;6.82;2.67;;;;;;;25.63;50.01;102041.72;5034749;28;20037;-83
2023/07/10 07:47:56;;;;;;;5.47;2.22;;;;;;;25.67;50.26;102050.16;5031877;28;20053;-83
2023/07/10 07:50:21;;;;;;;7.05;2.70;;;;;;;25.67;50.39;102053.66;5031395;28;20060;-83
2023/07/10 07:52:47;;;;;;;7.25;2.25;;;;;;;25.63;50.18;102035.56;5023815;28;20061;-83
2023/07/10 07:55:13;;;;;;;6.63;2.15;;;;;;;25.68;49.71;102049.22;5034628;28;20050;-83
2023/07/10 07:57:39;;;;;;;4.40;2.13;;;;;;;25.70;49.85;102064.00;5031036;28;20030;-84
2023/07/10 08:00:06;;;;;;;5.35;2.22;;;;;;;25.71;49.61;102052.31;5044760;28;20458;-85
2023/07/10 08:02:37;;;;;;;4.78;2.10;;;;;;;25.72;49.76;102061.16;5031559;28;20037;-84
2023/07/10 08:05:03;;;;;;;6.13;2.20;;;;;;;25.76;49.85;102063.25;5035000;28;20046;-84
2023/07/10 08:07:29;;;;;;;4.80;2.30;;;;;;;25.80;49.97;102063.69;5035838;28;20049;-84
2023/07/10 08:09:54;;;;;;;6.03;2.50;;;;;;;25.76;49.54;102070.44;5034842;28;20045;-84
2023/07/10 08:12:20;;;;;;;5.47;2.40;;;;;;;25.74;49.54;102054.63;5034042;28;20037;-82
2023/07/10 08:14:45;;;;;;;4.80;2.30;;;;;;;25.78;49.88;102068.38;5032129;28;20056;-84
2023/07/10 08:17:11;;;;;;;7.68;2.65;;;;;;;25.73;50.02;102066.28;5033805;28;20041;-84
2023/07/10 08:19:36;;;;;;;6.00;2.33;;;;;;;25.77;49.46;102072.91;5037401;28;20045;-84
2023/07/10 08:22:02;;;;;;;5.55;2.70;;;;;;;25.79;49.67;102067.38;5031058;28;20041;-84
2023/07/10 08:24:28;;;;;;;5.50;1.92;;;;;;;25.77;49.72;102070.22;5032931;28;20041;-85
2023/07/10 08:26:55;;;;;;;5.95;2.05;;;;;;;25.72;49.78;102064.66;5039257;28;20049;-84
2023/07/10 08:29:34;;;;;;;3.20;1.90;;;;;;;25.79;49.66;102065.53;5041169;28;20041;-84
2023/07/10 08:32:00;;;;;;;2.67;1.90;;;;;;;25.78;49.20;102058.53;5031634;28;20065;-84
2023/07/10 08:34:28;;;;;;;6.70;2.50;;;;;;;25.73;49.04;102041.47;5040219;28;20044;-84
2023/07/10 08:36:54;;;;;;;7.25;2.40;;;;;;;25.77;49.51;102050.72;5034275;28;20084;-84
2023/07/10 08:39:22;;;;;;;5.35;2.70;;;;;;;25.71;49.17;102044.31;5029069;28;20687;-84
2023/07/10 08:41:52;;;;;;;4.43;2.13;;;;;;;25.78;49.44;102068.38;5046935;28;20124;-84
2023/07/10 08:44:18;;;;;;;4.53;2.13;;;;;;;25.68;49.28;102047.38;5057111;28;20034;-84
2023/07/10 08:46:46;;;;;;;4.80;2.10;;;;;;;25.74;49.13;102059.13;5033826;28;20037;-83
2023/07/10 08:49:41;;;;;;;5.00;2.40;;;;;;;25.79;49.00;102062.88;5046177;28;20041;-83
2023/07/10 08:52:15;;;;;;;4.93;2.30;;;;;;;25.77;49.32;102059.56;5024377;28;21190;-85
2023/07/10 08:54:45;;;;;;;5.03;2.88;;;;;;;25.64;49.17;102034.56;5032533;28;20057;-85
2023/07/10 08:57:26;;;;;;;4.75;2.22;;;;;;;25.72;49.12;102045.16;5043709;28;20041;-84
2023/07/10 09:00:07;;;;;;;7.03;2.33;;;;;;;25.75;49.03;102052.78;5031042;28;20060;-85
2023/07/10 09:02:52;;;;;;;3.50;2.13;;;;;;;25.72;48.97;102059.31;5039325;28;20037;-84
2023/07/10 09:05:25;;;;;;;3.92;2.03;;;;;;;25.79;49.07;102064.72;5030516;28;20038;-84
2023/07/10 09:07:53;;;;;;;5.18;2.08;;;;;;;25.80;48.44;102064.50;5036395;28;20039;-83
2023/07/10 09:10:27;;;;;;;2.58;1.90;;;;;;;25.79;48.77;102067.38;5032547;28;20048;-83
2023/07/10 09:12:56;;;;;;;2.53;2.00;;;;;;;25.81;48.32;102068.00;5032442;28;20065;-82
2023/07/10 09:15:32;;;;;;;6.43;2.35;;;;;;;25.76;48.97;102063.25;5015609;28;20041;-84
2023/07/10 09:18:20;;;;;;;4.10;2.17;;;;;;;25.72;49.13;102063.81;5045423;28;20679;-83
2023/07/10 09:20:49;;;;;;;7.25;2.45;;;;;;;25.71;49.12;102062.19;5027493;28;20030;-81
2023/07/10 09:23:23;;;;;;;4.97;2.22;;;;;;;25.73;48.77;102070.81;5033304;28;20605;-84
2023/07/10 09:25:57;;;;;;;4.57;1.98;;;;;;;25.65;48.97;102050.38;5048513;28;20116;-82
2023/07/10 09:28:24;;;;;;;2.78;1.90;;;;;;;25.74;48.54;102070.63;5033976;28;20072;-83
2023/07/10 09:31:10;;;;;;;3.78;1.88;;;;;;;25.72;48.73;102075.31;5032490;28;20041;-85
2023/07/10 09:33:49;;;;;;;6.70;2.42;;;;;;;25.72;48.46;102072.66;5026118;28;20045;-83
2023/07/10 09:36:17;;;;;;;5.57;2.45;;;;;;;25.74;48.43;102078.63;5047554;28;20045;-82
2023/07/10 09:38:45;;;;;;;4.30;2.38;;;;;;;25.73;48.89;102087.63;5032699;28;20079;-84
2023/07/10 09:41:19;;;;;;;5.45;2.17;;;;;;;25.70;48.76;102081.88;5047395;28;20048;-83
2023/07/10 09:43:55;;;;;;;3.75;1.73;;;;;;;25.74;48.60;102078.63;5032472;28;20116;-83
2023/07/10 09:46:29;;;;;;;5.13;2.22;;;;;;;25.74;48.83;102083.13;5045320;28;20041;-82
2023/07/10 09:49:01;;;;;;;6.38;2.60;;;;;;;25.70;48.51;102082.69;5031807;28;20073;-82
2023/07/10 09:51:28;;;;;;;6.72;1.85;;;;;;;25.72;48.67;102080.66;5033596;28;20040;-82
2023/07/10 09:54:03;;;;;;;4.97;2.75;;;;;;;25.68;48.59;102070.56;5033189;28;20421;-85
2023/07/10 09:56:38;;;;;;;5.63;2.38;;;;;;;25.68;48.55;102082.06;5035339;28;20025;-86
2023/07/10 09:59:22;;;;;;;5.40;2.15;;;;;;;25.65;48.74;102070.88;5032169;28;20040;-85
2023/07/10 10:01:52;;;;;;;6.38;1.95;;;;;;;25.65;48.74;102066.38;5028552;28;20034;-86
2023/07/10 10:04:27;;;;;;;5.72;2.33;;;;;;;25.65;48.93;102076.22;5027391;28;20059;-87
2023/07/10 10:07:16;;;;;;;5.88;2.47;;;;;;;25.67;48.58;102071.50;5027953;28;20101;-87
2023/07/10 10:09:41;;;;;;;4.88;2.15;;;;;;;25.67;48.64;102083.00;5030199;28;20033;-86
2023/07/10 10:12:22;;;;;;;6.82;2.25;;;;;;;25.66;48.72;102084.03;4998044;28;20029;-88
2023/07/10 10:15:19;;;;;;;5.95;1.95;;;;;;;25.59;48.18;102075.13;5029488;28;20227;-85
2023/07/10 10:17:46;;;;;;;6.78;2.22;;;;;;;25.61;48.23;102081.94;5028885;28;20057;-83
2023/07/10 10:20:21;;;;;;;7.32;2.90;;;;;;;25.55;48.43;102076.53;5025949;28;20042;-87
2023/07/10 10:22:47;;;;;;;6.55;2.47;;;;;;;25.55;48.28;102071.19;5030077;28;20033;-88
2023/07/10 10:25:15;;;;;;;8.80;2.33;;;;;;;25.68;48.51;102075.91;5027060;28;20048;-87
2023/07/10 10:27:44;;;;;;;5.45;2.05;;;;;;;25.71;48.17;102070.19;5032919;28;20474;-87
2023/07/10 10:30:46;;;;;;;6.78;2.35;;;;;;;25.73;48.53;102084.16;5008464;28;20067;-87
2023/07/10 10:33:21;;;;;;;6.10;2.30;;;;;;;25.69;48.62;102072.22;5023322;28;20042;-86
2023/07/10 10:36:02;;;;;;;5.57;2.45;;;;;;;25.68;48.48;102067.88;5030340;28;20045;-87
2023/07/10 10:38:49;;;;;;;6.78;2.65;;;;;;;25.69;48.62;102070.38;5033360;28;20036;-85
2023/07/10 10:41:36;;;;;;;4.05;2.30;;;;;;;25.82;48.69;102080.34;5041312;28;20037;-85
2023/07/10 10:44:23;;;;;;;7.03;2.10;;;;;;;25.78;48.49;102074.56;5015791;28;20065;-86
2023/07/10 10:47:14;;;;;;;5.10;2.45;;;;;;;25.83;48.33;102081.97;5031740;28;20040;-82
2023/07/10 10:49:59;;;;;;;3.25;2.00;;;;;;;25.83;48.75;102081.97;5047966;28;20037;-83
2023/07/10 10:52:41;;;;;;;4.40;2.00;;;;;;;25.73;48.67;102076.97;5036897;28;20053;-84
2023/07/10 10:55:44;;;;;;;5.22;2.85;;;;;;;25.78;48.81;102081.72;5029642;28;20049;-83
2023/07/10 10:58:36;;;;;;;3.08;2.15;;;;;;;25.83;48.44;102093.47;5015671;28;20049;-82
2023/07/10 11:01:23;;;;;;;2.95;2.35;;;;;;;25.84;48.40;102091.63;5023587;28;20073;-84
2023/07/10 11:03:57;;;;;;;7.55;2.20;;;;;;;25.82;48.42;102086.50;5029978;28;20371;-84
2023/07/10 11:06:46;;;;;;;4.20;2.15;;;;;;;25.85;48.83;102085.28;5034968;28;20057;-85
2023/07/10 11:09:18;;;;;;;7.35;2.05;;;;;;;25.88;48.81;102084.94;5025913;28;20041;-83
2023/07/10 11:11:43;;;;;;;3.47;1.88;;;;;;;25.78;48.19;102066.53;5047432;28;20041;-84
2023/07/10 11:14:11;;;;;;;5.28;1.98;;;;;;;25.86;48.17;102071.78;5050564;28;20022;-83
2023/07/10 11:16:37;;;;;;;4.63;2.20;;;;;;;25.91;48.39;102081.88;5039965;28;20503;-83
2023/07/10 11:19:04;;;;;;;3.47;2.28;;;;;;;25.92;48.67;102086.19;5027900;28;20076;-82
2023/07/10 11:21:32;;;;;;;3.78;2.25;;;;;;;25.93;48.15;102081.69;5030417;28;20038;-83
2023/07/10 11:23:58;;;;;;;2.42;1.73;;;;;;;25.90;48.65;102078.38;5031252;28;20044;-84
2023/07/10 11:26:26;;;;;;;6.35;2.55;;;;;;;25.91;48.60;102076.53;5033162;28;20045;-84
2023/07/10 11:28:59;;;;;;;5.13;2.10;;;;;;;25.93;48.49;102089.69;5033269;28;20060;-83
2023/07/10 11:31:31;;;;;;;6.93;3.15;;;;;;;25.92;48.29;102086.19;5033243;28;20030;-85
2023/07/10 11:34:05;;;;;;;2.95;2.10;;;;;;;25.92;48.29;102085.38;5009634;28;20040;-84